Time;durP1;ratioP1;P1;durP2;ratioP2;P2;SDS_P1;SDS_P2;PMS_P1;PMS_P2;Temp;Humidity;BMP_temperature;BMP_pressure;BME280_temperature;BME280_humidity;BME280_pressure;Samples;Min_cycle;Max_cycle;Signal;HPM_P1;HPM_P2
2022/05/23 00:01:03;;;;;;;3.33;2.33;;;;;;;;;;6060317;29;20257;-67
2022/05/23 00:04:24;;;;;;;3.57;1.97;;;;;;;;;;6056071;29;20256;-67
2022/05/23 00:07:46;;;;;;;3.80;2.10;;;;;;;;;;6066725;29;20236;-67
2022/05/23 00:11:07;;;;;;;3.63;2.00;;;;;;;;;;6063902;29;20603;-68
2022/05/23 00:14:30;;;;;;;3.50;1.93;;;;;;;;;;6062714;29;20237;-68
2022/05/23 00:17:50;;;;;;;2.83;1.90;;;;;;;;;;6064006;29;20533;-68
2022/05/23 00:21:10;;;;;;;2.97;2.00;;;;;;;;;;6062831;29;20608;-68
2022/05/23 00:24:31;;;;;;;3.03;1.70;;;;;;;;;;6059169;29;20337;-67
2022/05/23 00:27:51;;;;;;;5.03;1.93;;;;;;;;;;6062307;29;20233;-67
2022/05/23 00:31:14;;;;;;;4.40;2.50;;;;;;;;;;6059452;29;20233;-68
2022/05/23 00:38:13;;;;;;;3.23;1.97;;;;;;;;;;6069104;29;20229;-68
2022/05/23 00:45:14;;;;;;;2.27;2.07;;;;;;;;;;6050976;29;20241;-68
2022/05/23 00:48:36;;;;;;;3.90;2.07;;;;;;;;;;6043489;29;20229;-68
2022/05/23 00:51:58;;;;;;;3.60;1.67;;;;;;;;;;6060342;29;20619;-68
2022/05/23 00:55:20;;;;;;;2.23;2.03;;;;;;;;;;6064920;29;20253;-68
2022/05/23 00:58:43;;;;;;;3.43;2.07;;;;;;;;;;6060983;29;20236;-68
2022/05/23 01:02:04;;;;;;;3.73;1.97;;;;;;;;;;6058303;29;20234;-68
2022/05/23 01:05:37;;;;;;;3.33;2.03;;;;;;;;;;6059699;29;20664;-67
2022/05/23 01:08:57;;;;;;;3.63;2.10;;;;;;;;;;6048471;29;20249;-68
2022/05/23 01:12:18;;;;;;;3.10;2.00;;;;;;;;;;6060752;29;20237;-66
2022/05/23 01:15:39;;;;;;;9.87;3.60;;;;;;;;;;6059727;29;20635;-67
2022/05/23 01:18:59;;;;;;;6.37;2.60;;;;;;;;;;6063292;29;20324;-68
2022/05/23 01:22:25;;;;;;;4.27;1.83;;;;;;;;;;6046579;29;20323;-68
2022/05/23 01:25:48;;;;;;;2.53;2.03;;;;;;;;;;6046668;29;20245;-68
2022/05/23 01:29:23;;;;;;;2.47;2.00;;;;;;;;;;6041488;29;20264;-68
2022/05/23 01:32:46;;;;;;;3.50;1.93;;;;;;;;;;6045746;29;20613;-67
2022/05/23 01:36:10;;;;;;;2.97;2.00;;;;;;;;;;6036947;29;20233;-68
2022/05/23 01:39:31;;;;;;;5.77;2.00;;;;;;;;;;6047086;29;20710;-68
2022/05/23 01:42:55;;;;;;;3.57;2.23;;;;;;;;;;6047269;29;20332;-69
2022/05/23 01:46:16;;;;;;;4.60;2.37;;;;;;;;;;6043365;29;20634;-68
2022/05/23 01:49:58;;;;;;;3.27;2.00;;;;;;;;;;6061057;29;20245;-69
2022/05/23 01:53:35;;;;;;;2.97;1.90;;;;;;;;;;6044894;29;20504;-68
2022/05/23 01:57:01;;;;;;;7.73;3.00;;;;;;;;;;6048989;29;20241;-68
2022/05/23 02:04:01;;;;;;;4.10;1.87;;;;;;;;;;6048323;29;20567;-68
2022/05/23 02:07:33;;;;;;;3.20;2.20;;;;;;;;;;6045231;29;20240;-67
2022/05/23 02:10:54;;;;;;;3.10;2.27;;;;;;;;;;6055915;29;20237;-68
2022/05/23 02:14:21;;;;;;;4.67;2.50;;;;;;;;;;6045681;29;20225;-68
2022/05/23 02:17:43;;;;;;;2.10;1.90;;;;;;;;;;6044878;29;20229;-68
2022/05/23 02:21:04;;;;;;;3.13;1.90;;;;;;;;;;6048220;29;20546;-68
2022/05/23 02:24:25;;;;;;;2.47;2.13;;;;;;;;;;6047977;29;20233;-68
2022/05/23 02:27:46;;;;;;;2.47;1.63;;;;;;;;;;6039541;29;20237;-67
2022/05/23 02:31:07;;;;;;;3.47;2.30;;;;;;;;;;6054308;29;20241;-68
2022/05/23 02:34:47;;;;;;;5.60;2.43;;;;;;;;;;6044546;29;20240;-68
2022/05/23 02:38:08;;;;;;;3.10;2.33;;;;;;;;;;6045094;29;20792;-68
2022/05/23 02:41:29;;;;;;;3.00;2.27;;;;;;;;;;6057949;29;20241;-68
2022/05/23 02:44:49;;;;;;;4.70;2.33;;;;;;;;;;6044116;29;20520;-68
2022/05/23 02:48:15;;;;;;;2.73;2.00;;;;;;;;;;6046108;29;20237;-68
2022/05/23 02:51:37;;;;;;;5.17;2.90;;;;;;;;;;6064113;29;20265;-68
2022/05/23 02:55:02;;;;;;;2.13;2.03;;;;;;;;;;6045320;29;20241;-68
2022/05/23 02:58:24;;;;;;;4.30;2.73;;;;;;;;;;6051779;29;20237;-68
2022/05/23 03:05:33;;;;;;;3.13;2.20;;;;;;;;;;6041058;29;20261;-68
2022/05/23 03:08:56;;;;;;;7.17;2.87;;;;;;;;;;6047677;29;20228;-68
2022/05/23 03:12:16;;;;;;;5.17;3.47;;;;;;;;;;6051623;29;20635;-67
2022/05/23 03:15:38;;;;;;;3.70;2.87;;;;;;;;;;6052590;29;20524;-67
2022/05/23 03:18:59;;;;;;;8.10;7.30;;;;;;;;;;6046143;29;20607;-68
2022/05/23 03:29:40;;;;;;;4.03;3.63;;;;;;;;;;6044604;29;20315;-68
2022/05/23 03:33:01;;;;;;;5.77;4.03;;;;;;;;;;6047221;29;20241;-67
2022/05/23 03:36:21;;;;;;;3.30;2.93;;;;;;;;;;6063009;29;20237;-68
2022/05/23 03:39:43;;;;;;;5.50;4.03;;;;;;;;;;6058244;29;20237;-68
2022/05/23 03:43:05;;;;;;;3.20;2.90;;;;;;;;;;6063339;29;20633;-68
2022/05/23 03:46:27;;;;;;;3.57;3.03;;;;;;;;;;6047889;29;20675;-67
2022/05/23 03:49:49;;;;;;;5.97;3.43;;;;;;;;;;6048459;29;20327;-68
2022/05/23 03:53:09;;;;;;;3.90;2.77;;;;;;;;;;6051732;29;20638;-67
2022/05/23 03:56:52;;;;;;;3.73;3.43;;;;;;;;;;6041989;29;20233;-68
2022/05/23 04:00:15;;;;;;;8.67;7.87;;;;;;;;;;6049096;29;20229;-68
2022/05/23 04:03:44;;;;;;;6.90;5.00;;;;;;;;;;6046758;29;20331;-69
2022/05/23 04:07:07;;;;;;;6.37;4.47;;;;;;;;;;6050082;29;20252;-68
2022/05/23 04:10:41;;;;;;;6.73;5.60;;;;;;;;;;6049022;29;20269;-68
2022/05/23 04:14:02;;;;;;;3.67;3.27;;;;;;;;;;6045038;29;20257;-68
2022/05/23 04:17:28;;;;;;;8.93;8.03;;;;;;;;;;6046756;29;20248;-68
2022/05/23 04:20:49;;;;;;;3.77;2.43;;;;;;;;;;6047444;29;20237;-69
2022/05/23 04:24:14;;;;;;;3.47;2.93;;;;;;;;;;6052944;29;20233;-68
2022/05/23 04:27:36;;;;;;;5.83;3.80;;;;;;;;;;6062426;29;20238;-68
2022/05/23 04:30:57;;;;;;;5.10;3.50;;;;;;;;;;6060565;29;20233;-68
2022/05/23 04:38:11;;;;;;;5.73;3.03;;;;;;;;;;6045914;29;20245;-68
2022/05/23 04:41:33;;;;;;;3.47;3.10;;;;;;;;;;6045504;29;20237;-69
2022/05/23 04:44:56;;;;;;;5.10;4.60;;;;;;;;;;6046733;29;20533;-68
2022/05/23 04:51:58;;;;;;;4.37;2.83;;;;;;;;;;6059989;29;20229;-68
2022/05/23 04:55:24;;;;;;;6.10;3.70;;;;;;;;;;6064110;29;20703;-68
2022/05/23 04:58:45;;;;;;;6.07;2.93;;;;;;;;;;6046630;29;20237;-68
2022/05/23 05:02:06;;;;;;;4.40;2.57;;;;;;;;;;6038565;29;20245;-68
2022/05/23 05:05:27;;;;;;;7.00;3.40;;;;;;;;;;6043041;29;20353;-69
2022/05/23 05:08:50;;;;;;;7.13;2.20;;;;;;;;;;6061160;29;20233;-69
2022/05/23 05:12:12;;;;;;;4.30;2.13;;;;;;;;;;6045658;29;20233;-68
2022/05/23 05:15:35;;;;;;;3.87;2.43;;;;;;;;;;6059715;29;20234;-69
2022/05/23 05:18:56;;;;;;;7.03;2.30;;;;;;;;;;6046061;29;20326;-69
2022/05/23 05:22:40;;;;;;;2.70;2.07;;;;;;;;;;6035474;29;20259;-67
2022/05/23 05:26:17;;;;;;;2.70;2.50;;;;;;;;;;6041253;29;20325;-69
2022/05/23 05:29:39;;;;;;;2.50;2.23;;;;;;;;;;6058685;29;20237;-68
2022/05/23 05:33:01;;;;;;;3.53;2.33;;;;;;;;;;6063566;29;20229;-70
2022/05/23 05:36:27;;;;;;;3.43;1.90;;;;;;;;;;6047966;29;20229;-68
2022/05/23 05:39:50;;;;;;;3.50;2.20;;;;;;;;;;6052054;29;20295;-68
2022/05/23 05:43:14;;;;;;;2.73;1.80;;;;;;;;;;6041089;29;20245;-69
2022/05/23 05:46:39;;;;;;;3.20;2.50;;;;;;;;;;6036065;29;20245;-74
2022/05/23 05:50:05;;;;;;;2.03;1.43;;;;;;;;;;6025168;29;20417;-72
2022/05/23 05:53:32;;;;;;;4.80;1.77;;;;;;;;;;6046288;29;20236;-72
2022/05/23 05:56:57;;;;;;;2.20;2.00;;;;;;;;;;6050338;29;20241;-72
2022/05/23 06:00:20;;;;;;;3.60;2.10;;;;;;;;;;6028853;29;20241;-73
2022/05/23 06:03:47;;;;;;;3.53;1.70;;;;;;;;;;6038874;29;20240;-71
2022/05/23 06:14:44;;;;;;;3.90;1.83;;;;;;;;;;6039660;29;20609;-73
2022/05/23 06:18:06;;;;;;;2.73;1.50;;;;;;;;;;6050291;29;20240;-74
2022/05/23 06:21:28;;;;;;;6.57;1.90;;;;;;;;;;6044598;29;20264;-72
2022/05/23 06:24:50;;;;;;;4.27;1.77;;;;;;;;;;6047051;29;20364;-75
2022/05/23 06:28:10;;;;;;;2.30;1.40;;;;;;;;;;6059008;29;20245;-76
2022/05/23 06:31:31;;;;;;;2.60;1.50;;;;;;;;;;6044000;29;20241;-79
2022/05/23 06:34:55;;;;;;;2.10;1.73;;;;;;;;;;6049754;29;20612;-79
2022/05/23 06:38:17;;;;;;;4.80;3.67;;;;;;;;;;6045933;29;20320;-76
2022/05/23 06:41:40;;;;;;;2.93;2.00;;;;;;;;;;6065630;29;20757;-76
2022/05/23 06:45:10;;;;;;;2.87;2.13;;;;;;;;;;6048681;29;20249;-74
2022/05/23 06:48:49;;;;;;;2.30;1.30;;;;;;;;;;6060125;29;20237;-78
2022/05/23 06:52:25;;;;;;;2.13;1.47;;;;;;;;;;6046765;29;20233;-80
2022/05/23 06:56:06;;;;;;;2.37;1.70;;;;;;;;;;6046635;29;20233;-81
2022/05/23 06:59:27;;;;;;;4.05;1.58;;;;;;;;;;6034162;29;20248;-81
2022/05/23 07:02:48;;;;;;;2.97;1.67;;;;;;;;;;6047163;29;20225;-80
2022/05/23 07:13:35;;;;;;;3.05;1.17;;;;;;;;;;6053393;29;20607;-68
2022/05/23 07:16:56;;;;;;;5.22;1.60;;;;;;;;;;6055463;29;21727;-68
2022/05/23 07:20:37;;;;;;;1.75;1.50;;;;;;;;;;6050075;29;20244;-68
2022/05/23 07:24:10;;;;;;;2.35;1.35;;;;;;;;;;6058985;29;20236;-67
2022/05/23 07:27:39;;;;;;;3.65;1.90;;;;;;;;;;6045692;29;20241;-67
2022/05/23 07:31:00;;;;;;;2.97;1.30;;;;;;;;;;6054324;29;20229;-66
2022/05/23 07:34:22;;;;;;;2.60;2.40;;;;;;;;;;6053714;29;20241;-67
2022/05/23 07:37:44;;;;;;;3.03;1.10;;;;;;;;;;6021934;29;20564;-66
2022/05/23 07:41:09;;;;;;;3.53;1.20;;;;;;;;;;6052976;29;20336;-67
2022/05/23 07:44:34;;;;;;;3.42;1.80;;;;;;;;;;6044234;29;20268;-67
2022/05/23 07:48:01;;;;;;;3.40;1.70;;;;;;;;;;6048252;29;20340;-66
2022/05/23 07:51:29;;;;;;;3.90;1.63;;;;;;;;;;6043392;29;20245;-67
2022/05/23 08:02:39;;;;;;;3.28;1.73;;;;;;;;;;6060975;29;20497;-68
2022/05/23 08:06:02;;;;;;;3.63;1.98;;;;;;;;;;6058875;29;20257;-68
2022/05/23 08:09:23;;;;;;;4.72;1.83;;;;;;;;;;6043131;29;20249;-66
2022/05/23 08:12:54;;;;;;;2.78;1.63;;;;;;;;;;6027681;29;20233;-66
2022/05/23 08:16:16;;;;;;;4.03;1.80;;;;;;;;;;6037607;29;20236;-67
2022/05/23 08:19:39;;;;;;;4.90;2.63;;;;;;;;;;6048244;29;20603;-68
2022/05/23 08:23:13;;;;;;;2.88;1.73;;;;;;;;;;6047907;29;20237;-67
2022/05/23 08:26:38;;;;;;;4.00;1.80;;;;;;;;;;6058491;29;20524;-68
2022/05/23 08:29:59;;;;;;;7.20;3.55;;;;;;;;;;6048264;29;20671;-67
2022/05/23 08:33:20;;;;;;;3.50;2.80;;;;;;;;;;6046476;29;20284;-66
2022/05/23 08:36:42;;;;;;;2.22;1.58;;;;;;;;;;6047215;29;20338;-67
2022/05/23 08:40:04;;;;;;;2.53;1.50;;;;;;;;;;6048588;29;20240;-68
2022/05/23 08:43:27;;;;;;;1.92;1.83;;;;;;;;;;6051110;29;20245;-68
2022/05/23 08:46:52;;;;;;;3.72;1.50;;;;;;;;;;6061697;29;20683;-69
2022/05/23 08:50:15;;;;;;;4.20;2.45;;;;;;;;;;6042767;29;20229;-72
2022/05/23 08:53:45;;;;;;;3.15;1.42;;;;;;;;;;6065225;29;20876;-70
2022/05/23 08:57:28;;;;;;;2.25;1.35;;;;;;;;;;6055109;29;20241;-71
2022/05/23 09:00:54;;;;;;;2.90;1.73;;;;;;;;;;6031965;29;20332;-69
2022/05/23 09:04:23;;;;;;;1.90;1.73;;;;;;;;;;6042096;29;20262;-70
2022/05/23 09:07:47;;;;;;;1.70;1.40;;;;;;;;;;6045025;29;20522;-69
2022/05/23 09:11:11;;;;;;;6.30;1.90;;;;;;;;;;6058934;29;20229;-68
2022/05/23 09:14:31;;;;;;;5.82;1.88;;;;;;;;;;6062093;29;20612;-67
2022/05/23 09:17:54;;;;;;;4.53;1.70;;;;;;;;;;6055390;29;20233;-67
2022/05/23 09:21:14;;;;;;;2.20;1.98;;;;;;;;;;6059464;29;20244;-67
2022/05/23 09:24:39;;;;;;;2.67;2.28;;;;;;;;;;6066817;29;20839;-68
2022/05/23 09:28:09;;;;;;;2.45;1.60;;;;;;;;;;6065072;29;20267;-68
2022/05/23 09:31:36;;;;;;;2.53;2.03;;;;;;;;;;6057046;29;20245;-69
2022/05/23 09:34:57;;;;;;;5.30;4.80;;;;;;;;;;6055141;29;20248;-67
2022/05/23 09:38:19;;;;;;;4.03;2.03;;;;;;;;;;6061911;29;20612;-67
2022/05/23 09:49:45;;;;;;;3.15;2.17;;;;;;;;;;6054980;29;20652;-71
2022/05/23 09:53:13;;;;;;;2.28;1.90;;;;;;;;;;6066079;29;20245;-69
2022/05/23 09:56:38;;;;;;;4.05;1.98;;;;;;;;;;6059129;29;20236;-69
2022/05/23 10:00:00;;;;;;;6.55;1.98;;;;;;;;;;6054631;29;20242;-66
2022/05/23 10:03:23;;;;;;;2.85;1.55;;;;;;;;;;6059889;29;20268;-67
2022/05/23 10:06:48;;;;;;;4.07;2.10;;;;;;;;;;6025294;29;20276;-68
2022/05/23 10:10:21;;;;;;;5.72;2.58;;;;;;;;;;6054835;29;20260;-70
2022/05/23 10:13:55;;;;;;;3.80;2.22;;;;;;;;;;6059148;29;20237;-70
2022/05/23 10:17:25;;;;;;;4.00;1.70;;;;;;;;;;6054786;29;20523;-68
2022/05/23 10:20:47;;;;;;;4.30;2.42;;;;;;;;;;6045612;29;20517;-70
2022/05/23 10:24:09;;;;;;;4.97;2.40;;;;;;;;;;6058343;29;20316;-69
2022/05/23 10:27:35;;;;;;;2.58;2.05;;;;;;;;;;6057557;29;20241;-69
2022/05/23 10:30:58;;;;;;;4.78;2.10;;;;;;;;;;6040321;29;20233;-70
2022/05/23 10:34:28;;;;;;;6.70;3.17;;;;;;;;;;6061860;29;21732;-67
2022/05/23 10:37:51;;;;;;;6.38;3.13;;;;;;;;;;6037021;29;20241;-69
2022/05/23 10:45:01;;;;;;;6.70;2.60;;;;;;;;;;6058074;29;20561;-69
2022/05/23 10:48:39;;;;;;;5.82;2.83;;;;;;;;;;6057839;29;20311;-70
2022/05/23 10:52:03;;;;;;;5.43;2.35;;;;;;;;;;6043381;29;20232;-68
2022/05/23 10:55:28;;;;;;;4.30;2.28;;;;;;;;;;6050667;29;20240;-69
2022/05/23 10:58:52;;;;;;;3.22;2.63;;;;;;;;;;6030125;29;20241;-68
2022/05/23 11:02:21;;;;;;;1.70;1.60;;;;;;;;;;6048129;29;20237;-70
2022/05/23 11:05:45;;;;;;;4.03;2.33;;;;;;;;;;6059915;29;20260;-70
2022/05/23 11:09:13;;;;;;;2.38;1.48;;;;;;;;;;6047384;29;20631;-68
2022/05/23 11:12:38;;;;;;;2.83;2.17;;;;;;;;;;6029797;29;20236;-69
2022/05/23 11:16:04;;;;;;;6.43;2.15;;;;;;;;;;6053421;29;20233;-68
2022/05/23 11:19:30;;;;;;;3.40;1.90;;;;;;;;;;6044341;29;20604;-70
2022/05/23 11:22:53;;;;;;;4.07;1.90;;;;;;;;;;6054864;29;20530;-69
2022/05/23 11:26:17;;;;;;;6.15;2.13;;;;;;;;;;6058154;29;20237;-69
2022/05/23 11:37:09;;;;;;;4.85;1.85;;;;;;;;;;6059857;29;20256;-69
2022/05/23 11:40:52;;;;;;;7.03;2.50;;;;;;;;;;6060306;29;20237;-68
2022/05/23 11:44:16;;;;;;;4.97;2.13;;;;;;;;;;6057910;29;22273;-70
2022/05/23 11:47:47;;;;;;;4.32;2.38;;;;;;;;;;6055374;29;20241;-72
2022/05/23 11:51:10;;;;;;;6.05;2.42;;;;;;;;;;6050202;29;20237;-71
2022/05/23 11:54:40;;;;;;;3.40;2.40;;;;;;;;;;6058801;29;20237;-71
2022/05/23 11:58:15;;;;;;;3.38;3.05;;;;;;;;;;6061613;29;20256;-69
2022/05/23 12:01:37;;;;;;;4.82;2.22;;;;;;;;;;6063577;29;20237;-70
2022/05/23 12:05:13;;;;;;;4.65;1.95;;;;;;;;;;6066727;29;20229;-70
2022/05/23 12:08:38;;;;;;;4.95;1.90;;;;;;;;;;6069084;29;20265;-68
2022/05/23 12:12:17;;;;;;;3.80;1.98;;;;;;;;;;6066060;29;20229;-72
2022/05/23 12:15:48;;;;;;;6.13;2.22;;;;;;;;;;6065485;29;20498;-70
2022/05/23 12:19:26;;;;;;;3.15;2.10;;;;;;;;;;6061093;29;20245;-69
2022/05/23 12:23:09;;;;;;;7.35;2.42;;;;;;;;;;6061916;29;20229;-69
2022/05/23 12:26:33;;;;;;;2.78;1.95;;;;;;;;;;6048536;29;20241;-69
2022/05/23 12:30:09;;;;;;;6.38;2.00;;;;;;;;;;6056899;29;20237;-70
2022/05/23 12:33:29;;;;;;;4.57;1.98;;;;;;;;;;6051521;29;20229;-69
2022/05/23 12:36:53;;;;;;;5.05;2.35;;;;;;;;;;6063921;29;20328;-69
2022/05/23 12:40:20;;;;;;;5.82;2.30;;;;;;;;;;6036641;29;20241;-72
2022/05/23 12:43:45;;;;;;;3.03;1.75;;;;;;;;;;6058951;29;20327;-71
2022/05/23 12:47:16;;;;;;;3.33;2.40;;;;;;;;;;6057138;29;20268;-68
2022/05/23 12:54:44;;;;;;;2.58;1.73;;;;;;;;;;6049385;29;20603;-68
2022/05/23 12:58:28;;;;;;;4.45;2.33;;;;;;;;;;6060310;29;20240;-67
2022/05/23 13:01:49;;;;;;;3.70;1.55;;;;;;;;;;6048443;29;20337;-67
2022/05/23 13:05:13;;;;;;;4.20;2.47;;;;;;;;;;6064359;29;20241;-65
2022/05/23 13:08:35;;;;;;;2.50;2.05;;;;;;;;;;6061505;29;20237;-66
2022/05/23 13:11:57;;;;;;;3.70;1.70;;;;;;;;;;6059595;29;20233;-65
2022/05/23 13:15:24;;;;;;;4.15;2.05;;;;;;;;;;6061571;29;20611;-65
2022/05/23 13:22:25;;;;;;;3.65;1.70;;;;;;;;;;6058378;29;20229;-65
2022/05/23 13:25:46;;;;;;;4.05;3.67;;;;;;;;;;6061267;29;20233;-64
2022/05/23 13:29:10;;;;;;;3.15;2.13;;;;;;;;;;6052538;29;20273;-65
2022/05/23 13:32:32;;;;;;;4.75;1.70;;;;;;;;;;6050924;29;20233;-66
2022/05/23 13:35:55;;;;;;;3.53;2.15;;;;;;;;;;6045218;29;20229;-66
2022/05/23 13:39:17;;;;;;;4.97;2.17;;;;;;;;;;6052207;29;20237;-64
2022/05/23 13:42:38;;;;;;;4.45;3.42;;;;;;;;;;6061121;29;20385;-64
2022/05/23 13:46:02;;;;;;;3.63;1.90;;;;;;;;;;6063656;29;20237;-63
2022/05/23 13:49:25;;;;;;;5.38;2.63;;;;;;;;;;6053169;29;20784;-67
2022/05/23 13:52:50;;;;;;;5.38;1.98;;;;;;;;;;6054557;29;20241;-66
2022/05/23 13:56:11;;;;;;;11.48;3.53;;;;;;;;;;6056486;29;20328;-65
2022/05/23 13:59:39;;;;;;;2.38;1.63;;;;;;;;;;6059297;29;20329;-65
2022/05/23 14:03:02;;;;;;;3.78;2.10;;;;;;;;;;6052554;29;20359;-67
2022/05/23 14:06:26;;;;;;;3.40;2.05;;;;;;;;;;6052418;29;20241;-64
2022/05/23 14:09:48;;;;;;;3.63;1.70;;;;;;;;;;6054236;29;20236;-66
2022/05/23 14:13:10;;;;;;;4.20;2.20;;;;;;;;;;6062781;29;20237;-67
2022/05/23 14:16:31;;;;;;;2.35;1.85;;;;;;;;;;6047802;29;20612;-67
2022/05/23 14:19:53;;;;;;;3.42;1.67;;;;;;;;;;6057118;29;20547;-67
2022/05/23 14:23:22;;;;;;;6.05;1.75;;;;;;;;;;6060587;29;20909;-66
2022/05/23 14:26:43;;;;;;;3.92;2.30;;;;;;;;;;6055153;29;20256;-68
2022/05/23 14:30:11;;;;;;;2.47;2.00;;;;;;;;;;6060293;29;20234;-66
2022/05/23 14:33:33;;;;;;;2.50;2.13;;;;;;;;;;6062389;29;20240;-66
2022/05/23 14:36:56;;;;;;;1.85;1.58;;;;;;;;;;6061921;29;20265;-66
2022/05/23 14:40:23;;;;;;;2.90;2.05;;;;;;;;;;6063251;29;20245;-66
2022/05/23 14:43:44;;;;;;;5.75;1.92;;;;;;;;;;6062781;29;20225;-67
2022/05/23 14:47:07;;;;;;;3.47;1.77;;;;;;;;;;6061580;29;20652;-65
2022/05/23 14:50:32;;;;;;;5.70;2.67;;;;;;;;;;6065500;29;20241;-66
2022/05/23 15:01:18;;;;;;;6.35;2.70;;;;;;;;;;6057790;29;20237;-64
2022/05/23 15:04:40;;;;;;;3.13;1.88;;;;;;;;;;6063902;29;20240;-67
2022/05/23 15:08:01;;;;;;;3.30;2.50;;;;;;;;;;6063887;29;20611;-67
2022/05/23 15:11:25;;;;;;;2.15;1.73;;;;;;;;;;6064450;29;20237;-66
2022/05/23 15:14:47;;;;;;;3.40;1.48;;;;;;;;;;6063202;29;20233;-66
2022/05/23 15:18:09;;;;;;;6.32;1.83;;;;;;;;;;6068021;29;20237;-65
2022/05/23 15:21:30;;;;;;;4.03;2.05;;;;;;;;;;6061084;29;20331;-67
2022/05/23 15:24:51;;;;;;;1.80;1.70;;;;;;;;;;6045664;29;20257;-67
2022/05/23 15:28:13;;;;;;;3.22;1.98;;;;;;;;;;6053498;29;20636;-67
2022/05/23 15:31:39;;;;;;;6.38;2.70;;;;;;;;;;6052548;29;20244;-67
2022/05/23 15:35:00;;;;;;;6.80;2.75;;;;;;;;;;6064717;29;20236;-67
2022/05/23 15:38:20;;;;;;;3.72;1.88;;;;;;;;;;6064403;29;20233;-67
2022/05/23 15:41:46;;;;;;;1.83;1.67;;;;;;;;;;6065397;29;20245;-66
2022/05/23 15:45:08;;;;;;;7.63;5.68;;;;;;;;;;6060423;29;20237;-67
2022/05/23 15:48:30;;;;;;;4.18;2.63;;;;;;;;;;6066273;29;20229;-67
2022/05/23 15:51:50;;;;;;;10.40;8.10;;;;;;;;;;6060546;29;20234;-66
2022/05/23 15:55:11;;;;;;;4.85;4.35;;;;;;;;;;6063117;29;20237;-67
2022/05/23 15:58:32;;;;;;;5.30;4.03;;;;;;;;;;6058935;29;20233;-67
2022/05/23 16:01:53;;;;;;;12.25;8.85;;;;;;;;;;6048713;29;21047;-66
2022/05/23 16:05:15;;;;;;;7.40;5.55;;;;;;;;;;6068310;29;20233;-67
2022/05/23 16:12:14;;;;;;;7.30;6.55;;;;;;;;;;6059699;29;20233;-68
2022/05/23 16:15:35;;;;;;;5.15;3.38;;;;;;;;;;6056931;29;20229;-66
2022/05/23 16:18:56;;;;;;;4.03;2.65;;;;;;;;;;6064649;29;20233;-67
2022/05/23 16:22:22;;;;;;;3.88;2.30;;;;;;;;;;6065813;29;20225;-66
2022/05/23 16:25:43;;;;;;;2.72;2.05;;;;;;;;;;6053918;29;20256;-67
2022/05/23 16:29:04;;;;;;;3.38;1.65;;;;;;;;;;6067474;29;20225;-68
2022/05/23 16:39:42;;;;;;;4.57;1.92;;;;;;;;;;6063840;29;20229;-65
2022/05/23 16:43:03;;;;;;;4.05;1.92;;;;;;;;;;6068257;29;20233;-68
2022/05/23 16:46:24;;;;;;;4.63;2.33;;;;;;;;;;6064536;29;20233;-67
2022/05/23 16:49:44;;;;;;;11.23;2.42;;;;;;;;;;6065821;29;20347;-67
2022/05/23 16:53:04;;;;;;;3.47;2.90;;;;;;;;;;6059677;29;21795;-67
2022/05/23 16:56:27;;;;;;;2.63;1.55;;;;;;;;;;6061473;29;20233;-65
2022/05/23 16:59:48;;;;;;;2.55;1.90;;;;;;;;;;6057101;29;20241;-66
2022/05/23 17:03:13;;;;;;;2.20;2.00;;;;;;;;;;6060836;29;20647;-65
2022/05/23 17:06:35;;;;;;;5.30;1.92;;;;;;;;;;6054878;29;20276;-66
2022/05/23 17:09:55;;;;;;;6.10;2.22;;;;;;;;;;6060564;29;20233;-65
2022/05/23 17:13:18;;;;;;;2.10;1.73;;;;;;;;;;6057307;29;20245;-66
2022/05/23 17:16:39;;;;;;;4.50;2.03;;;;;;;;;;6060409;29;22026;-66
2022/05/23 17:20:00;;;;;;;2.63;1.95;;;;;;;;;;6064000;29;20237;-68
2022/05/23 17:23:21;;;;;;;5.10;2.45;;;;;;;;;;6056165;29;20245;-68
2022/05/23 17:26:41;;;;;;;4.13;2.17;;;;;;;;;;6056978;29;20237;-67
2022/05/23 17:30:03;;;;;;;2.63;1.80;;;;;;;;;;6058152;29;20545;-68
2022/05/23 17:33:24;;;;;;;4.10;1.63;;;;;;;;;;6068529;29;20233;-67
2022/05/23 17:36:45;;;;;;;3.90;2.22;;;;;;;;;;6051687;29;20252;-68
2022/05/23 17:40:06;;;;;;;3.78;2.40;;;;;;;;;;6063098;29;20317;-69
2022/05/23 17:43:26;;;;;;;13.05;2.67;;;;;;;;;;6051695;29;20815;-69
2022/05/23 17:46:48;;;;;;;2.60;1.95;;;;;;;;;;6051618;29;20261;-68
2022/05/23 17:50:09;;;;;;;7.15;2.53;;;;;;;;;;6059394;29;20344;-69
2022/05/23 17:53:32;;;;;;;6.55;2.33;;;;;;;;;;6051595;29;20241;-68
2022/05/23 17:56:53;;;;;;;3.65;1.75;;;;;;;;;;6050430;29;20241;-66
2022/05/23 18:00:15;;;;;;;4.43;2.88;;;;;;;;;;6054898;29;20236;-66
2022/05/23 18:03:38;;;;;;;6.30;1.75;;;;;;;;;;6056480;29;20552;-68
2022/05/23 18:06:58;;;;;;;6.03;2.28;;;;;;;;;;6056770;29;20248;-66
2022/05/23 18:10:19;;;;;;;4.20;2.33;;;;;;;;;;6054573;29;20237;-70
2022/05/23 18:21:00;;;;;;;2.20;2.00;;;;;;;;;;6059850;29;20228;-66
2022/05/23 18:24:21;;;;;;;7.57;2.80;;;;;;;;;;6055532;29;20233;-68
2022/05/23 18:27:42;;;;;;;2.75;1.90;;;;;;;;;;6061681;29;20240;-67
2022/05/23 18:31:03;;;;;;;2.92;2.03;;;;;;;;;;6062334;29;20639;-66
2022/05/23 18:34:24;;;;;;;5.28;2.28;;;;;;;;;;6055070;29;20236;-67
2022/05/23 18:37:46;;;;;;;2.92;2.20;;;;;;;;;;6057095;29;20608;-69
2022/05/23 18:41:07;;;;;;;3.63;2.20;;;;;;;;;;6053013;29;20571;-68
2022/05/23 18:44:27;;;;;;;3.63;2.33;;;;;;;;;;6057234;29;20324;-69
2022/05/23 18:49:41;;;;;;;2.33;2.13;;;;;;;;;;6054092;29;20252;-68
2022/05/23 18:51:32;;;;;;;3.50;2.47;;;;;;;;;;6060756;29;20237;-68
2022/05/23 18:54:54;;;;;;;4.72;4.03;;;;;;;;;;6060236;29;20336;-68
2022/05/23 18:58:18;;;;;;;3.70;3.35;;;;;;;;;;6063662;29;20413;-68
2022/05/23 19:01:39;;;;;;;3.10;2.80;;;;;;;;;;6068542;29;20320;-66
2022/05/23 19:04:59;;;;;;;3.72;2.28;;;;;;;;;;6068577;29;20561;-69
2022/05/23 19:08:20;;;;;;;2.60;2.40;;;;;;;;;;6067589;29;20240;-68
2022/05/23 19:11:42;;;;;;;3.20;2.90;;;;;;;;;;6064477;29;20241;-68
2022/05/23 19:15:03;;;;;;;3.40;3.05;;;;;;;;;;6071994;29;20260;-68
2022/05/23 19:18:23;;;;;;;3.08;2.78;;;;;;;;;;6061678;29;20615;-69
2022/05/23 19:21:44;;;;;;;4.03;2.13;;;;;;;;;;6065291;29;20237;-68
2022/05/23 19:25:05;;;;;;;2.22;2.05;;;;;;;;;;6071707;29;20236;-68
2022/05/23 19:28:27;;;;;;;1.98;1.85;;;;;;;;;;6055333;29;20549;-68
2022/05/23 19:31:50;;;;;;;2.15;1.88;;;;;;;;;;6060120;29;20237;-67
2022/05/23 19:35:11;;;;;;;1.85;1.73;;;;;;;;;;6068692;29;20237;-67
2022/05/23 19:38:32;;;;;;;3.95;2.58;;;;;;;;;;6069208;29;20843;-68
2022/05/23 19:41:52;;;;;;;3.05;2.38;;;;;;;;;;6063819;29;20221;-69
2022/05/23 19:45:14;;;;;;;2.58;2.33;;;;;;;;;;6065718;29;20555;-68
2022/05/23 19:48:35;;;;;;;4.38;2.50;;;;;;;;;;6067505;29;20317;-67
2022/05/23 19:51:55;;;;;;;2.75;2.33;;;;;;;;;;6067875;29;20241;-67
2022/05/23 19:55:18;;;;;;;2.33;2.05;;;;;;;;;;6049418;29;20689;-68
2022/05/23 19:58:38;;;;;;;5.47;2.50;;;;;;;;;;6066959;29;20245;-68
2022/05/23 20:09:23;;;;;;;5.82;3.13;;;;;;;;;;6005841;29;20237;-67
2022/05/23 20:12:44;;;;;;;4.80;2.25;;;;;;;;;;6070041;29;20261;-68
2022/05/23 20:16:05;;;;;;;2.55;2.35;;;;;;;;;;6067279;29;21511;-68
2022/05/23 20:19:27;;;;;;;3.13;2.60;;;;;;;;;;6064446;29;20237;-67
2022/05/23 20:22:48;;;;;;;1.98;1.88;;;;;;;;;;6061242;29;20284;-68
2022/05/23 20:26:08;;;;;;;4.38;2.38;;;;;;;;;;6062526;29;20265;-68
2022/05/23 20:29:29;;;;;;;2.45;1.77;;;;;;;;;;6065317;29;20599;-68
2022/05/23 20:32:49;;;;;;;3.65;2.20;;;;;;;;;;6064267;29;20240;-68
2022/05/23 20:36:11;;;;;;;3.80;2.53;;;;;;;;;;6023999;29;20234;-67
2022/05/23 20:39:32;;;;;;;6.68;2.70;;;;;;;;;;6053510;29;20237;-65
2022/05/23 20:42:53;;;;;;;3.30;2.42;;;;;;;;;;6059770;29;20857;-68
2022/05/23 20:46:28;;;;;;;3.00;2.10;;;;;;;;;;6063993;29;20275;-68
2022/05/23 20:49:48;;;;;;;7.00;2.70;;;;;;;;;;6064441;29;20250;-68
2022/05/23 20:53:10;;;;;;;4.57;2.35;;;;;;;;;;6058516;29;21787;-69
2022/05/23 20:56:30;;;;;;;2.72;2.47;;;;;;;;;;6059364;29;20620;-68
2022/05/23 20:59:51;;;;;;;3.55;2.60;;;;;;;;;;6064123;29;20676;-68
2022/05/23 21:03:12;;;;;;;2.85;2.40;;;;;;;;;;6066307;29;20245;-67
2022/05/23 21:06:33;;;;;;;2.63;2.40;;;;;;;;;;6059187;29;20226;-67
2022/05/23 21:09:55;;;;;;;3.70;2.30;;;;;;;;;;6062775;29;20589;-68
2022/05/23 21:13:15;;;;;;;3.53;2.72;;;;;;;;;;6066506;29;20260;-67
2022/05/23 21:16:36;;;;;;;3.28;2.58;;;;;;;;;;6068143;29;20233;-68
2022/05/23 21:19:58;;;;;;;2.97;2.13;;;;;;;;;;6064443;29;20253;-67
2022/05/23 21:23:19;;;;;;;2.65;2.42;;;;;;;;;;6062070;29;20642;-70
2022/05/23 21:26:41;;;;;;;4.90;2.80;;;;;;;;;;6042100;29;20327;-68
2022/05/23 21:30:02;;;;;;;3.72;2.10;;;;;;;;;;6063149;29;20534;-68
2022/05/23 21:33:23;;;;;;;3.42;2.22;;;;;;;;;;6056795;29;20713;-68
2022/05/23 21:36:46;;;;;;;2.83;1.92;;;;;;;;;;6042784;29;20241;-68
2022/05/23 21:47:25;;;;;;;2.75;2.45;;;;;;;;;;6036617;29;20229;-68
2022/05/23 21:50:45;;;;;;;2.75;2.30;;;;;;;;;;6036115;29;20800;-68
2022/05/23 21:54:06;;;;;;;3.65;2.65;;;;;;;;;;6056655;29;20741;-67
2022/05/23 21:57:26;;;;;;;4.80;2.80;;;;;;;;;;6053663;29;20237;-68
2022/05/23 22:04:25;;;;;;;3.83;3.42;;;;;;;;;;6061625;29;20236;-68
2022/05/23 22:07:46;;;;;;;4.55;3.03;;;;;;;;;;6061288;29;20237;-67
2022/05/23 22:11:06;;;;;;;4.75;3.20;;;;;;;;;;6051974;29;20237;-68
2022/05/23 22:14:27;;;;;;;6.00;3.30;;;;;;;;;;6062187;29;20705;-67
2022/05/23 22:17:49;;;;;;;2.88;2.67;;;;;;;;;;6057809;29;20237;-67
2022/05/23 22:21:09;;;;;;;4.78;3.47;;;;;;;;;;6059955;29;20237;-68
2022/05/23 22:24:30;;;;;;;7.68;3.78;;;;;;;;;;6059033;29;20237;-67